createdAt,value
2023-06-13T00:00:27.570Z,20.69
2023-06-13T00:04:31.484Z,20.63
2023-06-13T00:08:36.236Z,20.55
2023-06-13T00:12:40.090Z,20.48
2023-06-13T00:16:44.209Z,20.37
2023-06-13T00:20:47.222Z,20.29
2023-06-13T00:24:51.617Z,20.22
2023-06-13T00:28:54.694Z,20.15
2023-06-13T00:32:57.509Z,20.09
2023-06-13T00:37:00.424Z,20.03
2023-06-13T00:41:04.718Z,19.97
2023-06-13T00:45:21.213Z,19.86
2023-06-13T00:49:26.246Z,19.80
2023-06-13T00:53:32.052Z,19.75
2023-06-13T00:57:39.870Z,19.67
2023-06-13T01:01:43.425Z,19.54
2023-06-13T01:05:48.124Z,19.50
2023-06-13T01:09:50.910Z,19.47
2023-06-13T01:14:02.440Z,19.40
2023-06-13T01:18:08.344Z,19.35
2023-06-13T01:22:14.258Z,19.30
2023-06-13T01:26:29.447Z,19.24
2023-06-13T01:30:34.094Z,19.19
2023-06-13T01:34:37.712Z,19.12
2023-06-13T01:38:41.591Z,19.07
2023-06-13T01:42:44.463Z,19.01
2023-06-13T01:46:58.112Z,18.95
2023-06-13T01:51:09.219Z,18.89
2023-06-13T01:55:17.551Z,18.81
2023-06-13T01:59:26.288Z,18.73
2023-06-13T02:03:32.061Z,18.61
2023-06-13T02:07:38.084Z,18.56
2023-06-13T02:11:40.933Z,18.48
2023-06-13T02:15:44.187Z,18.43
2023-06-13T02:19:48.350Z,18.37
2023-06-13T02:23:52.490Z,18.36
2023-06-13T02:27:55.341Z,18.31
2023-06-13T02:31:58.384Z,18.26
2023-06-13T02:36:02.446Z,18.21
2023-06-13T02:40:08.915Z,18.17
2023-06-13T02:44:12.528Z,18.13
2023-06-13T02:48:15.413Z,18.11
2023-06-13T02:52:22.969Z,18.07
2023-06-13T02:56:27.366Z,18.06
2023-06-13T03:00:30.326Z,18.01
2023-06-13T03:04:40.929Z,17.92
2023-06-13T03:08:45.771Z,17.81
2023-06-13T03:12:50.380Z,17.73
2023-06-13T03:16:54.317Z,17.67
2023-06-13T03:20:57.345Z,17.64
2023-06-13T03:25:06.028Z,17.63
2023-06-13T03:29:14.246Z,17.56
2023-06-13T03:33:18.387Z,17.53
2023-06-13T03:37:23.233Z,17.49
2023-06-13T03:41:27.435Z,17.43
2023-06-13T03:45:30.418Z,17.30
2023-06-13T03:49:33.330Z,17.24
2023-06-13T03:53:36.799Z,17.25
2023-06-13T03:57:41.499Z,17.30
2023-06-13T04:01:44.529Z,17.34
2023-06-13T04:05:47.370Z,17.38
2023-06-13T04:09:51.562Z,17.40
2023-06-13T04:13:57.976Z,17.42
2023-06-13T04:18:02.233Z,17.45
2023-06-13T04:22:06.688Z,17.49
2023-06-13T04:26:10.446Z,17.50
2023-06-13T04:30:16.168Z,17.51
2023-06-13T04:34:19.379Z,17.52
2023-06-13T04:38:22.916Z,17.57
2023-06-13T04:42:28.577Z,17.62
2023-06-13T04:46:34.337Z,17.62
2023-06-13T04:50:41.296Z,17.70
2023-06-13T04:54:58.113Z,17.76
2023-06-13T04:59:01.195Z,17.81
2023-06-13T05:03:06.092Z,17.85
2023-06-13T05:07:10.049Z,17.90
2023-06-13T05:11:12.935Z,17.96
2023-06-13T05:15:17.364Z,17.99
2023-06-13T05:19:22.432Z,18.05
2023-06-13T05:23:25.620Z,18.10
2023-06-13T05:27:29.209Z,18.14
2023-06-13T05:31:32.601Z,18.19
2023-06-13T05:35:51.883Z,18.25
2023-06-13T05:39:59.987Z,18.37
2023-06-13T05:44:03.106Z,18.51
2023-06-13T05:48:08.831Z,18.69
2023-06-13T05:52:13.103Z,18.89
2023-06-13T05:56:38.206Z,19.13
2023-06-13T06:00:42.490Z,19.51
2023-06-13T06:04:46.379Z,20.01
2023-06-13T06:08:51.311Z,20.49
2023-06-13T06:12:54.715Z,21.02
2023-06-13T06:16:57.510Z,21.61
2023-06-13T06:21:03.365Z,22.28
2023-06-13T06:25:14.042Z,22.85
2023-06-13T06:29:18.984Z,23.33
2023-06-13T06:33:22.314Z,23.76
2023-06-13T06:37:25.923Z,24.22
2023-06-13T06:41:30.220Z,24.65
2023-06-13T06:45:33.040Z,24.89
2023-06-13T06:49:35.905Z,25.29
2023-06-13T06:53:40.761Z,25.62
2023-06-13T06:57:45.346Z,25.91
2023-06-13T07:01:49.300Z,26.32
2023-06-13T07:05:52.205Z,26.68
2023-06-13T07:09:54.961Z,26.99
2023-06-13T07:14:00.050Z,27.25
2023-06-13T07:18:11.542Z,27.37
2023-06-13T07:22:14.685Z,27.68
2023-06-13T07:26:17.518Z,27.93
2023-06-13T07:30:21.911Z,28.27
2023-06-13T07:38:30.750Z,28.98
2023-06-13T07:42:33.849Z,29.31
2023-06-13T07:46:38.185Z,29.40
2023-06-13T07:50:43.137Z,29.65
2023-06-13T07:54:46.218Z,29.63
2023-06-13T07:58:49.274Z,29.83
2023-06-13T08:02:53.729Z,30.08
2023-06-13T08:06:56.758Z,30.16
2023-06-13T08:10:59.711Z,30.26
2023-06-13T08:15:02.877Z,30.30
2023-06-13T08:19:07.407Z,30.77
2023-06-13T08:23:10.189Z,30.82
2023-06-13T08:27:12.934Z,30.98
2023-06-13T08:31:44.072Z,31.31
2023-06-13T08:35:45.439Z,31.41
2023-06-13T08:39:48.215Z,31.62
2023-06-13T08:43:52.021Z,31.85
2023-06-13T08:47:55.630Z,31.92
2023-06-13T08:52:01.624Z,32.02
2023-06-13T08:56:09.069Z,32.10
2023-06-13T09:00:14.635Z,32.25
2023-06-13T09:04:19.689Z,32.27
2023-06-13T09:08:31.553Z,32.39
2023-06-13T09:12:36.224Z,32.33
2023-06-13T09:16:39.455Z,32.25
2023-06-13T09:20:42.351Z,32.33
2023-06-13T09:24:47.644Z,32.06
2023-06-13T09:28:50.674Z,32.03
2023-06-13T09:32:54.622Z,32.21
2023-06-13T09:36:58.913Z,32.30
2023-06-13T09:41:05.703Z,32.52
2023-06-13T09:45:10.975Z,32.70
2023-06-13T09:49:13.959Z,32.83
2023-06-13T09:53:16.805Z,33.03
2023-06-13T09:57:23.928Z,32.94
2023-06-13T10:01:36.093Z,33.10
2023-06-13T10:05:40.360Z,33.29
2023-06-13T10:09:43.565Z,33.41
2023-06-13T10:13:57.355Z,33.59
2023-06-13T10:18:04.722Z,33.75
2023-06-13T10:22:10.093Z,33.79
2023-06-13T10:26:17.881Z,33.68
2023-06-13T10:30:39.789Z,33.55
2023-06-13T10:35:02.366Z,33.40
2023-06-13T10:39:40.257Z,33.43
2023-06-13T10:43:50.181Z,33.53
2023-06-13T10:47:54.408Z,33.76
2023-06-13T10:51:58.766Z,33.83
2023-06-13T10:56:03.490Z,33.82
2023-06-13T11:00:24.293Z,33.80
2023-06-13T11:04:31.091Z,33.86
2023-06-13T11:08:34.734Z,33.87
2023-06-13T11:12:37.793Z,33.66
2023-06-13T11:16:41.956Z,33.70
2023-06-13T11:20:56.974Z,33.83
2023-06-13T11:25:01.326Z,33.79
2023-06-13T11:29:05.029Z,33.87
2023-06-13T11:33:09.032Z,33.92
2023-06-13T11:37:25.729Z,34.04
2023-06-13T11:41:29.649Z,34.08
2023-06-13T11:45:32.574Z,34.34
2023-06-13T11:49:35.693Z,34.41
2023-06-13T11:54:20.732Z,34.53
2023-06-13T11:58:47.528Z,34.61
2023-06-13T12:02:53.085Z,34.51
2023-06-13T12:06:56.506Z,34.54
2023-06-13T12:11:34.976Z,34.51
2023-06-13T12:15:41.262Z,34.42
2023-06-13T12:19:44.213Z,34.68
2023-06-13T12:23:47.295Z,34.78
2023-06-13T12:27:52.273Z,34.93
2023-06-13T12:32:01.524Z,34.85
2023-06-13T12:36:06.766Z,34.78
2023-06-13T12:40:13.141Z,34.60
2023-06-13T12:44:16.614Z,34.23
2023-06-13T12:48:21.368Z,34.26
2023-06-13T12:52:28.048Z,34.10
2023-06-13T12:56:31.104Z,33.98
2023-06-13T13:00:34.185Z,34.11
2023-06-13T13:04:39.708Z,33.85
2023-06-13T13:08:42.593Z,33.85
2023-06-13T13:12:45.585Z,33.95
2023-06-13T13:16:48.404Z,33.83
2023-06-13T13:20:53.264Z,33.92
2023-06-13T13:24:56.167Z,33.85
2023-06-13T13:28:58.914Z,33.77
2023-06-13T13:33:02.509Z,34.07
2023-06-13T13:37:07.757Z,34.01
2023-06-13T13:41:14.539Z,33.97
2023-06-13T13:45:17.568Z,34.00
2023-06-13T13:49:22.502Z,34.17
2023-06-13T13:53:29.419Z,34.32
2023-06-13T13:57:32.430Z,34.11
2023-06-13T14:01:35.399Z,34.09
2023-06-13T14:05:39.625Z,34.11
2023-06-13T14:09:43.970Z,34.10
2023-06-13T14:13:47.755Z,33.94
2023-06-13T14:17:51.177Z,33.84
2023-06-13T14:21:54.735Z,33.96
2023-06-13T14:25:59.084Z,33.84
2023-06-13T14:30:12.332Z,33.91
2023-06-13T14:34:19.715Z,33.86
2023-06-13T14:38:23.510Z,33.61
2023-06-13T14:42:29.798Z,33.49
2023-06-13T14:46:34.726Z,33.57
2023-06-13T14:50:37.747Z,33.53
2023-06-13T14:54:41.705Z,33.30
2023-06-13T14:58:46.223Z,33.22
2023-06-13T15:02:49.261Z,33.20
2023-06-13T15:06:53.234Z,33.14
2023-06-13T15:10:57.764Z,33.21
2023-06-13T15:15:02.178Z,33.06
2023-06-13T15:19:05.201Z,32.97
2023-06-13T15:23:08.510Z,32.82
2023-06-13T15:27:37.856Z,32.75
2023-06-13T15:31:59.082Z,32.60
2023-06-13T15:36:17.676Z,32.64
2023-06-13T15:40:44.372Z,32.61
2023-06-13T15:44:47.118Z,32.50
2023-06-13T15:48:51.212Z,32.35
2023-06-13T15:52:55.623Z,32.08
2023-06-13T15:56:58.398Z,32.06
2023-06-13T16:01:01.923Z,32.05
2023-06-13T16:05:07.630Z,32.02
2023-06-13T16:09:12.101Z,32.02
2023-06-13T16:13:16.901Z,31.95
2023-06-13T16:17:25.612Z,31.86
2023-06-13T16:21:43.920Z,31.72
2023-06-13T16:26:02.590Z,31.63
2023-06-13T16:30:21.197Z,31.51
2023-06-13T16:34:38.296Z,31.45
2023-06-13T16:39:09.516Z,31.39
2023-06-13T16:43:29.128Z,31.20
2023-06-13T16:47:38.957Z,31.15
2023-06-13T16:51:50.927Z,31.02
2023-06-13T16:55:55.476Z,30.85
2023-06-13T16:59:59.367Z,30.82
2023-06-13T17:04:10.959Z,30.75
2023-06-13T17:08:27.657Z,30.70
2023-06-13T17:12:48.492Z,30.65
2023-06-13T17:17:03.873Z,30.51
2023-06-13T17:21:22.444Z,30.51
2023-06-13T17:25:40.967Z,30.41
2023-06-13T17:30:00.257Z,30.35
2023-06-13T17:34:12.003Z,30.21
2023-06-13T17:38:15.697Z,30.05
2023-06-13T17:42:22.553Z,29.94
2023-06-13T17:46:30.516Z,29.89
2023-06-13T17:50:35.605Z,29.72
2023-06-13T17:54:43.426Z,29.56
2023-06-13T17:59:01.545Z,29.41
2023-06-13T18:03:07.070Z,29.28
2023-06-13T18:07:20.175Z,29.15
2023-06-13T18:11:23.485Z,29.02
2023-06-13T18:15:26.967Z,28.87
2023-06-13T18:19:32.505Z,28.78
2023-06-13T18:23:45.816Z,28.66
2023-06-13T18:27:50.077Z,28.43
2023-06-13T18:32:09.277Z,28.28
2023-06-13T18:36:34.784Z,28.18
2023-06-13T18:40:38.885Z,27.99
2023-06-13T18:44:41.790Z,27.83
2023-06-13T18:48:46.414Z,27.69
2023-06-13T18:53:01.960Z,27.53
2023-06-13T18:57:05.637Z,27.45
2023-06-13T19:01:10.628Z,27.28
2023-06-13T19:05:17.597Z,27.06
2023-06-13T19:09:32.451Z,26.87
2023-06-13T19:13:35.261Z,26.73
2023-06-13T19:17:38.772Z,26.58
2023-06-13T19:21:43.015Z,26.44
2023-06-13T19:25:48.359Z,26.32
2023-06-13T19:29:53.243Z,26.17
2023-06-13T19:33:57.321Z,26.04
2023-06-13T19:38:00.258Z,25.89
2023-06-13T19:42:07.387Z,25.76
2023-06-13T19:46:10.818Z,25.59
2023-06-13T19:50:14.470Z,25.46
2023-06-13T19:54:23.050Z,25.32
2023-06-13T19:58:48.591Z,25.12
2023-06-13T20:03:02.023Z,24.97
2023-06-13T20:07:05.764Z,24.82
2023-06-13T20:11:09.019Z,24.67
2023-06-13T20:21:04.160Z,24.32
2023-06-13T20:25:14.972Z,24.20
2023-06-13T20:29:23.775Z,24.08
2023-06-13T20:33:56.825Z,23.93
2023-06-13T20:38:09.357Z,23.81
2023-06-13T20:42:32.086Z,23.69
2023-06-13T20:46:36.130Z,23.60
2023-06-13T20:51:12.328Z,23.47
2023-06-13T20:55:33.525Z,23.38
2023-06-13T20:59:49.822Z,23.30
2023-06-13T21:04:11.480Z,23.16
2023-06-13T21:08:40.251Z,23.05
2023-06-13T21:13:03.241Z,22.95
2023-06-13T21:17:23.904Z,22.85
2023-06-13T21:21:42.583Z,22.73
2023-06-13T21:25:46.228Z,22.63
2023-06-13T21:29:52.274Z,22.53
2023-06-13T21:33:56.120Z,22.34
2023-06-13T21:37:59.132Z,22.19
2023-06-13T21:42:05.213Z,22.12
2023-06-13T21:46:10.010Z,22.03
2023-06-13T21:50:34.606Z,21.94
2023-06-13T21:54:38.325Z,21.86
2023-06-13T21:58:43.092Z,21.79
2023-06-13T22:02:48.560Z,21.70
2023-06-13T22:06:51.522Z,21.63
2023-06-13T22:10:55.982Z,21.58
2023-06-13T22:14:58.807Z,21.49
2023-06-13T22:19:03.498Z,21.38
2023-06-13T22:23:06.274Z,21.36
2023-06-13T22:27:09.875Z,21.26
2023-06-13T22:31:12.636Z,21.19
2023-06-13T22:35:17.214Z,21.15
2023-06-13T22:39:20.064Z,21.10
2023-06-13T22:43:24.608Z,21.00
2023-06-13T22:47:28.370Z,20.91
2023-06-13T22:51:32.595Z,20.89
2023-06-13T22:55:35.392Z,20.84
2023-06-13T22:59:38.427Z,20.78
2023-06-13T23:03:41.311Z,20.75
2023-06-13T23:07:58.212Z,20.65
2023-06-13T23:12:01.253Z,20.61
2023-06-13T23:16:08.251Z,20.52
2023-06-13T23:20:13.449Z,20.42
2023-06-13T23:24:17.769Z,20.37
2023-06-13T23:28:20.889Z,20.34
2023-06-13T23:32:24.060Z,20.27
2023-06-13T23:36:29.114Z,20.23
2023-06-13T23:40:33.257Z,20.18
2023-06-13T23:44:37.438Z,20.11
2023-06-13T23:48:41.022Z,20.07
2023-06-13T23:52:43.849Z,20.04
2023-06-13T23:56:50.888Z,19.97
